sensor_id;sensor_type;location;lat;lon;timestamp;temperature;humidity
70368;DHT22;57789;53.868;10.728;2023-10-31T00:00:17;11.20;99.90
70368;DHT22;57789;53.868;10.728;2023-10-31T00:02:43;11.10;99.90
70368;DHT22;57789;53.868;10.728;2023-10-31T00:05:09;11.20;99.90
70368;DHT22;57789;53.868;10.728;2023-10-31T00:07:34;11.20;99.90
70368;DHT22;57789;53.868;10.728;2023-10-31T00:10:00;11.20;99.90
70368;DHT22;57789;53.868;10.728;2023-10-31T00:12:26;11.20;99.90
70368;DHT22;57789;53.868;10.728;2023-10-31T00:14:52;11.20;99.90
70368;DHT22;57789;53.868;10.728;2023-10-31T00:17:17;11.20;99.90
70368;DHT22;57789;53.868;10.728;2023-10-31T00:19:43;11.10;99.90
70368;DHT22;57789;53.868;10.728;2023-10-31T00:22:09;11.10;99.90
70368;DHT22;57789;53.868;10.728;2023-10-31T00:24:35;11.10;99.90
70368;DHT22;57789;53.868;10.728;2023-10-31T00:27:01;11.10;99.90
70368;DHT22;57789;53.868;10.728;2023-10-31T00:29:26;11.10;99.90
70368;DHT22;57789;53.868;10.728;2023-10-31T00:31:52;11.10;99.90
70368;DHT22;57789;53.868;10.728;2023-10-31T00:34:18;11.00;99.90
70368;DHT22;57789;53.868;10.728;2023-10-31T00:36:43;11.00;99.90
70368;DHT22;57789;53.868;10.728;2023-10-31T00:39:09;11.00;99.90
70368;DHT22;57789;53.868;10.728;2023-10-31T00:41:35;11.00;99.90
70368;DHT22;57789;53.868;10.728;2023-10-31T00:44:00;11.00;99.90
70368;DHT22;57789;53.868;10.728;2023-10-31T00:46:26;11.00;99.90
70368;DHT22;57789;53.868;10.728;2023-10-31T00:48:52;11.00;99.90
70368;DHT22;57789;53.868;10.728;2023-10-31T00:51:17;11.00;99.90
70368;DHT22;57789;53.868;10.728;2023-10-31T00:53:43;11.00;99.90
70368;DHT22;57789;53.868;10.728;2023-10-31T00:56:09;11.00;99.90
70368;DHT22;57789;53.868;10.728;2023-10-31T00:58:34;11.00;99.90
70368;DHT22;57789;53.868;10.728;2023-10-31T01:01:00;11.00;99.90
70368;DHT22;57789;53.868;10.728;2023-10-31T01:03:26;11.10;99.90
70368;DHT22;57789;53.868;10.728;2023-10-31T01:05:51;11.00;99.90
70368;DHT22;57789;53.868;10.728;2023-10-31T01:08:17;11.00;99.90
70368;DHT22;57789;53.868;10.728;2023-10-31T01:10:43;11.00;99.90
70368;DHT22;57789;53.868;10.728;2023-10-31T01:13:08;11.00;99.90
70368;DHT22;57789;53.868;10.728;2023-10-31T01:15:34;11.00;99.90
70368;DHT22;57789;53.868;10.728;2023-10-31T01:17:59;11.00;99.90
70368;DHT22;57789;53.868;10.728;2023-10-31T01:20:25;11.00;99.90
70368;DHT22;57789;53.868;10.728;2023-10-31T01:22:51;11.00;99.90
70368;DHT22;57789;53.868;10.728;2023-10-31T01:25:17;11.00;99.90
70368;DHT22;57789;53.868;10.728;2023-10-31T01:27:42;11.00;99.90
70368;DHT22;57789;53.868;10.728;2023-10-31T01:30:09;11.00;99.90
70368;DHT22;57789;53.868;10.728;2023-10-31T01:32:35;11.00;99.90
70368;DHT22;57789;53.868;10.728;2023-10-31T01:35:01;10.90;99.90
70368;DHT22;57789;53.868;10.728;2023-10-31T01:37:27;10.90;99.90
70368;DHT22;57789;53.868;10.728;2023-10-31T01:39:52;10.90;99.90
70368;DHT22;57789;53.868;10.728;2023-10-31T01:42:18;10.90;99.90
70368;DHT22;57789;53.868;10.728;2023-10-31T01:44:44;10.90;99.90
70368;DHT22;57789;53.868;10.728;2023-10-31T01:47:09;10.90;99.90
70368;DHT22;57789;53.868;10.728;2023-10-31T01:49:36;10.90;99.90
70368;DHT22;57789;53.868;10.728;2023-10-31T01:52:04;10.90;99.90
70368;DHT22;57789;53.868;10.728;2023-10-31T01:54:29;11.00;99.90
70368;DHT22;57789;53.868;10.728;2023-10-31T01:56:56;11.00;99.90
70368;DHT22;57789;53.868;10.728;2023-10-31T01:59:27;11.00;99.90
70368;DHT22;57789;53.868;10.728;2023-10-31T02:01:52;11.00;99.90
70368;DHT22;57789;53.868;10.728;2023-10-31T02:04:19;11.00;99.90
70368;DHT22;57789;53.868;10.728;2023-10-31T02:06:44;11.00;99.90
70368;DHT22;57789;53.868;10.728;2023-10-31T02:09:10;11.00;99.90
70368;DHT22;57789;53.868;10.728;2023-10-31T02:11:37;10.90;99.90
70368;DHT22;57789;53.868;10.728;2023-10-31T02:14:03;10.90;99.90
70368;DHT22;57789;53.868;10.728;2023-10-31T02:16:28;10.90;99.90
70368;DHT22;57789;53.868;10.728;2023-10-31T02:18:54;10.90;99.90
70368;DHT22;57789;53.868;10.728;2023-10-31T02:21:20;10.90;99.90
70368;DHT22;57789;53.868;10.728;2023-10-31T02:24:00;10.80;99.90
70368;DHT22;57789;53.868;10.728;2023-10-31T02:26:30;10.80;99.90
70368;DHT22;57789;53.868;10.728;2023-10-31T02:28:55;10.80;99.90
70368;DHT22;57789;53.868;10.728;2023-10-31T02:31:21;10.80;99.90
70368;DHT22;57789;53.868;10.728;2023-10-31T02:33:47;10.80;99.90
70368;DHT22;57789;53.868;10.728;2023-10-31T02:36:13;10.90;99.90
70368;DHT22;57789;53.868;10.728;2023-10-31T02:38:39;10.90;99.90
70368;DHT22;57789;53.868;10.728;2023-10-31T02:41:05;10.80;99.90
70368;DHT22;57789;53.868;10.728;2023-10-31T02:43:30;10.80;99.90
70368;DHT22;57789;53.868;10.728;2023-10-31T02:45:56;10.80;99.90
70368;DHT22;57789;53.868;10.728;2023-10-31T02:48:23;10.80;99.90
70368;DHT22;57789;53.868;10.728;2023-10-31T02:50:50;10.80;99.90
70368;DHT22;57789;53.868;10.728;2023-10-31T02:53:17;10.80;99.90
70368;DHT22;57789;53.868;10.728;2023-10-31T02:55:43;10.90;99.90
70368;DHT22;57789;53.868;10.728;2023-10-31T02:58:09;10.90;99.90
70368;DHT22;57789;53.868;10.728;2023-10-31T03:00:34;10.90;99.90
70368;DHT22;57789;53.868;10.728;2023-10-31T03:03:00;10.90;99.90
70368;DHT22;57789;53.868;10.728;2023-10-31T03:05:25;10.90;99.90
70368;DHT22;57789;53.868;10.728;2023-10-31T03:07:51;10.90;99.90
70368;DHT22;57789;53.868;10.728;2023-10-31T03:10:19;10.90;99.90
70368;DHT22;57789;53.868;10.728;2023-10-31T03:12:44;10.90;99.90
70368;DHT22;57789;53.868;10.728;2023-10-31T03:15:11;10.90;99.90
70368;DHT22;57789;53.868;10.728;2023-10-31T03:17:37;10.90;99.90
70368;DHT22;57789;53.868;10.728;2023-10-31T03:20:03;10.90;99.90
70368;DHT22;57789;53.868;10.728;2023-10-31T03:22:28;10.90;99.90
70368;DHT22;57789;53.868;10.728;2023-10-31T03:24:54;10.90;99.90
70368;DHT22;57789;53.868;10.728;2023-10-31T03:27:20;10.90;99.90
70368;DHT22;57789;53.868;10.728;2023-10-31T03:29:46;10.90;99.90
70368;DHT22;57789;53.868;10.728;2023-10-31T03:32:12;10.90;99.90
70368;DHT22;57789;53.868;10.728;2023-10-31T03:34:37;11.00;99.90
70368;DHT22;57789;53.868;10.728;2023-10-31T03:37:07;10.90;99.90
70368;DHT22;57789;53.868;10.728;2023-10-31T03:39:32;10.90;99.90
70368;DHT22;57789;53.868;10.728;2023-10-31T03:41:58;11.00;99.90
70368;DHT22;57789;53.868;10.728;2023-10-31T03:44:24;11.00;99.90
70368;DHT22;57789;53.868;10.728;2023-10-31T03:46:49;11.00;99.90
70368;DHT22;57789;53.868;10.728;2023-10-31T03:49:15;11.00;99.90
70368;DHT22;57789;53.868;10.728;2023-10-31T03:51:40;11.00;99.90
70368;DHT22;57789;53.868;10.728;2023-10-31T03:54:07;11.00;99.90
70368;DHT22;57789;53.868;10.728;2023-10-31T03:56:43;11.00;99.90
70368;DHT22;57789;53.868;10.728;2023-10-31T03:59:09;11.00;99.90
70368;DHT22;57789;53.868;10.728;2023-10-31T04:01:35;11.10;99.90
70368;DHT22;57789;53.868;10.728;2023-10-31T04:04:01;11.10;99.90
70368;DHT22;57789;53.868;10.728;2023-10-31T04:06:27;11.10;99.90
70368;DHT22;57789;53.868;10.728;2023-10-31T04:08:52;11.10;99.90
70368;DHT22;57789;53.868;10.728;2023-10-31T04:11:18;11.10;99.90
70368;DHT22;57789;53.868;10.728;2023-10-31T04:13:44;11.20;99.90
70368;DHT22;57789;53.868;10.728;2023-10-31T04:16:09;11.10;99.90
70368;DHT22;57789;53.868;10.728;2023-10-31T04:18:36;11.20;99.90
70368;DHT22;57789;53.868;10.728;2023-10-31T04:21:02;11.20;99.90
70368;DHT22;57789;53.868;10.728;2023-10-31T04:23:28;11.20;99.90
70368;DHT22;57789;53.868;10.728;2023-10-31T04:25:53;11.20;99.90
70368;DHT22;57789;53.868;10.728;2023-10-31T04:28:19;11.20;99.90
70368;DHT22;57789;53.868;10.728;2023-10-31T04:30:45;11.20;99.90
70368;DHT22;57789;53.868;10.728;2023-10-31T04:33:10;11.20;99.90
70368;DHT22;57789;53.868;10.728;2023-10-31T04:35:36;11.20;99.90
70368;DHT22;57789;53.868;10.728;2023-10-31T04:38:02;11.30;99.90
70368;DHT22;57789;53.868;10.728;2023-10-31T04:40:27;11.30;99.90
70368;DHT22;57789;53.868;10.728;2023-10-31T04:42:54;11.30;99.90
70368;DHT22;57789;53.868;10.728;2023-10-31T04:45:20;11.30;99.90
70368;DHT22;57789;53.868;10.728;2023-10-31T04:47:45;11.30;99.90
70368;DHT22;57789;53.868;10.728;2023-10-31T04:50:11;11.30;99.90
70368;DHT22;57789;53.868;10.728;2023-10-31T04:52:37;11.30;99.90
70368;DHT22;57789;53.868;10.728;2023-10-31T04:55:02;11.30;99.90
70368;DHT22;57789;53.868;10.728;2023-10-31T04:57:28;11.30;99.90
70368;DHT22;57789;53.868;10.728;2023-10-31T04:59:54;11.40;99.90
70368;DHT22;57789;53.868;10.728;2023-10-31T05:02:22;11.40;99.90
70368;DHT22;57789;53.868;10.728;2023-10-31T05:04:48;11.40;99.90
70368;DHT22;57789;53.868;10.728;2023-10-31T05:07:17;11.40;99.90
70368;DHT22;57789;53.868;10.728;2023-10-31T05:09:42;11.40;99.90
70368;DHT22;57789;53.868;10.728;2023-10-31T05:12:08;11.40;99.90
70368;DHT22;57789;53.868;10.728;2023-10-31T05:14:34;11.40;99.90
70368;DHT22;57789;53.868;10.728;2023-10-31T05:17:00;11.50;99.90
70368;DHT22;57789;53.868;10.728;2023-10-31T05:19:26;11.50;99.90
70368;DHT22;57789;53.868;10.728;2023-10-31T05:21:52;11.50;99.90
70368;DHT22;57789;53.868;10.728;2023-10-31T05:24:18;11.50;99.90
70368;DHT22;57789;53.868;10.728;2023-10-31T05:26:43;11.50;99.90
70368;DHT22;57789;53.868;10.728;2023-10-31T05:29:10;11.60;99.90
70368;DHT22;57789;53.868;10.728;2023-10-31T05:31:36;11.50;99.90
70368;DHT22;57789;53.868;10.728;2023-10-31T05:34:01;11.60;99.90
70368;DHT22;57789;53.868;10.728;2023-10-31T05:36:29;11.60;99.90
70368;DHT22;57789;53.868;10.728;2023-10-31T05:38:54;11.60;99.90
70368;DHT22;57789;53.868;10.728;2023-10-31T05:41:20;11.60;99.90
70368;DHT22;57789;53.868;10.728;2023-10-31T05:43:46;11.60;99.90
70368;DHT22;57789;53.868;10.728;2023-10-31T05:46:12;11.70;99.90
70368;DHT22;57789;53.868;10.728;2023-10-31T05:48:43;11.60;99.90
70368;DHT22;57789;53.868;10.728;2023-10-31T05:53:39;11.70;99.90
70368;DHT22;57789;53.868;10.728;2023-10-31T05:56:05;11.70;99.90
70368;DHT22;57789;53.868;10.728;2023-10-31T05:58:32;11.70;99.90
70368;DHT22;57789;53.868;10.728;2023-10-31T06:00:58;11.70;99.90
70368;DHT22;57789;53.868;10.728;2023-10-31T06:03:24;11.70;99.90
70368;DHT22;57789;53.868;10.728;2023-10-31T06:05:49;11.70;99.90
70368;DHT22;57789;53.868;10.728;2023-10-31T06:08:15;11.70;99.90
70368;DHT22;57789;53.868;10.728;2023-10-31T06:10:41;11.70;99.90
70368;DHT22;57789;53.868;10.728;2023-10-31T06:13:06;11.70;99.90
70368;DHT22;57789;53.868;10.728;2023-10-31T06:15:32;11.70;99.90
70368;DHT22;57789;53.868;10.728;2023-10-31T06:17:58;11.70;99.90
70368;DHT22;57789;53.868;10.728;2023-10-31T06:20:23;11.70;99.90
70368;DHT22;57789;53.868;10.728;2023-10-31T06:22:49;11.80;99.90
70368;DHT22;57789;53.868;10.728;2023-10-31T06:25:15;11.80;99.90
70368;DHT22;57789;53.868;10.728;2023-10-31T06:27:40;11.70;99.90
70368;DHT22;57789;53.868;10.728;2023-10-31T06:30:06;11.80;99.90
70368;DHT22;57789;53.868;10.728;2023-10-31T06:32:32;11.80;99.90
70368;DHT22;57789;53.868;10.728;2023-10-31T06:34:58;11.80;99.90
70368;DHT22;57789;53.868;10.728;2023-10-31T06:37:23;11.80;99.90
70368;DHT22;57789;53.868;10.728;2023-10-31T06:39:49;11.80;99.90
70368;DHT22;57789;53.868;10.728;2023-10-31T06:42:15;11.80;99.90
70368;DHT22;57789;53.868;10.728;2023-10-31T06:44:40;11.80;99.90
70368;DHT22;57789;53.868;10.728;2023-10-31T06:47:06;11.80;99.90
70368;DHT22;57789;53.868;10.728;2023-10-31T06:49:32;11.90;99.90
70368;DHT22;57789;53.868;10.728;2023-10-31T06:51:57;11.80;99.90
70368;DHT22;57789;53.868;10.728;2023-10-31T06:54:23;11.90;99.90
70368;DHT22;57789;53.868;10.728;2023-10-31T06:56:48;11.90;99.90
70368;DHT22;57789;53.868;10.728;2023-10-31T06:59:14;11.90;99.90
70368;DHT22;57789;53.868;10.728;2023-10-31T07:01:40;11.90;99.90
70368;DHT22;57789;53.868;10.728;2023-10-31T07:04:05;11.90;99.90
70368;DHT22;57789;53.868;10.728;2023-10-31T07:06:32;12.00;99.90
70368;DHT22;57789;53.868;10.728;2023-10-31T07:08:57;12.00;99.90
70368;DHT22;57789;53.868;10.728;2023-10-31T07:11:25;12.00;99.90
70368;DHT22;57789;53.868;10.728;2023-10-31T07:13:51;12.00;99.90
70368;DHT22;57789;53.868;10.728;2023-10-31T07:16:17;12.00;99.90
70368;DHT22;57789;53.868;10.728;2023-10-31T07:18:42;12.10;99.90
70368;DHT22;57789;53.868;10.728;2023-10-31T07:21:08;12.10;99.90
70368;DHT22;57789;53.868;10.728;2023-10-31T07:23:33;12.10;99.90
70368;DHT22;57789;53.868;10.728;2023-10-31T07:25:59;12.10;99.90
70368;DHT22;57789;53.868;10.728;2023-10-31T07:28:25;12.10;99.90
70368;DHT22;57789;53.868;10.728;2023-10-31T07:30:50;12.10;99.90
70368;DHT22;57789;53.868;10.728;2023-10-31T07:33:16;12.10;99.90
70368;DHT22;57789;53.868;10.728;2023-10-31T07:35:41;12.20;99.90
70368;DHT22;57789;53.868;10.728;2023-10-31T07:38:07;12.20;99.90
70368;DHT22;57789;53.868;10.728;2023-10-31T07:40:33;12.10;99.90
70368;DHT22;57789;53.868;10.728;2023-10-31T07:42:58;12.20;99.90
70368;DHT22;57789;53.868;10.728;2023-10-31T07:45:24;12.20;99.90
70368;DHT22;57789;53.868;10.728;2023-10-31T07:47:50;12.20;99.90
70368;DHT22;57789;53.868;10.728;2023-10-31T07:50:15;12.20;99.90
70368;DHT22;57789;53.868;10.728;2023-10-31T07:52:41;12.20;99.90
70368;DHT22;57789;53.868;10.728;2023-10-31T07:55:09;12.20;99.90
70368;DHT22;57789;53.868;10.728;2023-10-31T07:57:36;12.30;99.90
70368;DHT22;57789;53.868;10.728;2023-10-31T08:00:02;12.30;99.90
70368;DHT22;57789;53.868;10.728;2023-10-31T08:02:29;12.20;99.90
70368;DHT22;57789;53.868;10.728;2023-10-31T08:04:54;12.30;99.90
70368;DHT22;57789;53.868;10.728;2023-10-31T08:07:20;12.30;99.90
70368;DHT22;57789;53.868;10.728;2023-10-31T08:09:45;12.30;99.90
70368;DHT22;57789;53.868;10.728;2023-10-31T08:12:11;12.30;99.90
70368;DHT22;57789;53.868;10.728;2023-10-31T08:14:37;12.30;99.90
70368;DHT22;57789;53.868;10.728;2023-10-31T08:17:03;12.30;99.90
70368;DHT22;57789;53.868;10.728;2023-10-31T08:19:28;12.30;99.90
70368;DHT22;57789;53.868;10.728;2023-10-31T08:21:54;12.40;99.90
70368;DHT22;57789;53.868;10.728;2023-10-31T08:24:20;12.40;99.90
70368;DHT22;57789;53.868;10.728;2023-10-31T08:26:45;12.40;99.90
70368;DHT22;57789;53.868;10.728;2023-10-31T08:29:11;12.40;99.90
70368;DHT22;57789;53.868;10.728;2023-10-31T08:31:36;12.50;99.90
70368;DHT22;57789;53.868;10.728;2023-10-31T08:34:02;12.50;99.90
70368;DHT22;57789;53.868;10.728;2023-10-31T08:36:29;12.50;99.90
70368;DHT22;57789;53.868;10.728;2023-10-31T08:38:55;12.50;99.90
70368;DHT22;57789;53.868;10.728;2023-10-31T08:41:20;12.50;99.90
70368;DHT22;57789;53.868;10.728;2023-10-31T08:43:47;12.50;99.90
70368;DHT22;57789;53.868;10.728;2023-10-31T08:46:12;12.50;99.90
70368;DHT22;57789;53.868;10.728;2023-10-31T08:48:38;12.50;99.90
70368;DHT22;57789;53.868;10.728;2023-10-31T08:51:04;12.50;99.90
70368;DHT22;57789;53.868;10.728;2023-10-31T08:53:30;12.50;99.90
70368;DHT22;57789;53.868;10.728;2023-10-31T08:55:56;12.50;99.90
70368;DHT22;57789;53.868;10.728;2023-10-31T08:58:22;12.50;99.90
70368;DHT22;57789;53.868;10.728;2023-10-31T09:00:47;12.50;99.90
70368;DHT22;57789;53.868;10.728;2023-10-31T09:03:13;12.50;99.90
70368;DHT22;57789;53.868;10.728;2023-10-31T09:05:40;12.60;99.90
70368;DHT22;57789;53.868;10.728;2023-10-31T09:08:06;12.50;99.90
70368;DHT22;57789;53.868;10.728;2023-10-31T09:10:35;12.60;99.90
70368;DHT22;57789;53.868;10.728;2023-10-31T09:13:01;12.80;99.90
70368;DHT22;57789;53.868;10.728;2023-10-31T09:15:26;12.80;99.90
70368;DHT22;57789;53.868;10.728;2023-10-31T09:17:52;12.80;99.90
70368;DHT22;57789;53.868;10.728;2023-10-31T09:20:18;12.80;99.90
70368;DHT22;57789;53.868;10.728;2023-10-31T09:22:43;12.80;99.90
70368;DHT22;57789;53.868;10.728;2023-10-31T09:25:09;12.70;99.90
70368;DHT22;57789;53.868;10.728;2023-10-31T09:27:38;12.60;99.90
70368;DHT22;57789;53.868;10.728;2023-10-31T09:30:05;12.50;99.90
70368;DHT22;57789;53.868;10.728;2023-10-31T09:32:30;12.30;99.90
70368;DHT22;57789;53.868;10.728;2023-10-31T09:34:56;12.30;99.90
70368;DHT22;57789;53.868;10.728;2023-10-31T09:37:22;12.10;99.90
70368;DHT22;57789;53.868;10.728;2023-10-31T09:39:48;12.00;99.90
70368;DHT22;57789;53.868;10.728;2023-10-31T09:42:14;11.90;99.90
70368;DHT22;57789;53.868;10.728;2023-10-31T09:44:40;11.80;99.90
70368;DHT22;57789;53.868;10.728;2023-10-31T09:47:06;11.70;99.90
70368;DHT22;57789;53.868;10.728;2023-10-31T09:49:32;11.70;99.90
70368;DHT22;57789;53.868;10.728;2023-10-31T09:51:58;11.60;99.90
70368;DHT22;57789;53.868;10.728;2023-10-31T09:54:25;11.50;99.90
70368;DHT22;57789;53.868;10.728;2023-10-31T09:56:51;11.50;99.90
70368;DHT22;57789;53.868;10.728;2023-10-31T09:59:17;11.40;99.90
70368;DHT22;57789;53.868;10.728;2023-10-31T10:01:43;11.50;99.90
70368;DHT22;57789;53.868;10.728;2023-10-31T10:04:09;11.50;99.90
70368;DHT22;57789;53.868;10.728;2023-10-31T10:06:35;11.40;99.90
70368;DHT22;57789;53.868;10.728;2023-10-31T10:09:00;11.40;99.90
70368;DHT22;57789;53.868;10.728;2023-10-31T10:11:32;11.40;99.90
70368;DHT22;57789;53.868;10.728;2023-10-31T10:13:59;11.40;99.90
70368;DHT22;57789;53.868;10.728;2023-10-31T10:16:31;11.30;99.90
70368;DHT22;57789;53.868;10.728;2023-10-31T10:18:58;11.30;99.90
70368;DHT22;57789;53.868;10.728;2023-10-31T10:21:53;11.30;99.90
70368;DHT22;57789;53.868;10.728;2023-10-31T10:24:20;11.30;99.90
70368;DHT22;57789;53.868;10.728;2023-10-31T10:26:47;11.30;99.90
70368;DHT22;57789;53.868;10.728;2023-10-31T10:29:13;11.30;99.90
70368;DHT22;57789;53.868;10.728;2023-10-31T10:31:39;11.30;99.90
70368;DHT22;57789;53.868;10.728;2023-10-31T10:34:06;11.30;99.90
70368;DHT22;57789;53.868;10.728;2023-10-31T10:36:33;11.30;99.90
70368;DHT22;57789;53.868;10.728;2023-10-31T10:38:59;11.30;99.90
70368;DHT22;57789;53.868;10.728;2023-10-31T10:41:26;11.30;99.90
70368;DHT22;57789;53.868;10.728;2023-10-31T10:44:05;11.30;99.90
70368;DHT22;57789;53.868;10.728;2023-10-31T10:46:36;11.30;99.90
70368;DHT22;57789;53.868;10.728;2023-10-31T10:49:05;11.30;99.90
70368;DHT22;57789;53.868;10.728;2023-10-31T10:51:53;11.30;99.90
70368;DHT22;57789;53.868;10.728;2023-10-31T10:54:26;11.30;99.90
70368;DHT22;57789;53.868;10.728;2023-10-31T10:57:08;11.20;99.90
70368;DHT22;57789;53.868;10.728;2023-10-31T10:59:47;11.20;99.90
70368;DHT22;57789;53.868;10.728;2023-10-31T11:02:18;11.00;99.90
70368;DHT22;57789;53.868;10.728;2023-10-31T11:04:45;10.90;99.90
70368;DHT22;57789;53.868;10.728;2023-10-31T11:07:11;10.90;99.90
70368;DHT22;57789;53.868;10.728;2023-10-31T11:09:39;10.70;99.90
70368;DHT22;57789;53.868;10.728;2023-10-31T11:12:08;10.30;99.90
70368;DHT22;57789;53.868;10.728;2023-10-31T11:14:36;10.10;99.90
70368;DHT22;57789;53.868;10.728;2023-10-31T11:17:14;10.00;99.90
70368;DHT22;57789;53.868;10.728;2023-10-31T11:19:44;9.90;99.90
70368;DHT22;57789;53.868;10.728;2023-10-31T11:22:10;9.80;99.90
70368;DHT22;57789;53.868;10.728;2023-10-31T11:24:38;9.70;99.90
70368;DHT22;57789;53.868;10.728;2023-10-31T11:27:06;9.60;99.90
70368;DHT22;57789;53.868;10.728;2023-10-31T11:29:32;9.60;99.90
70368;DHT22;57789;53.868;10.728;2023-10-31T11:31:58;9.50;99.90
70368;DHT22;57789;53.868;10.728;2023-10-31T11:34:28;9.50;99.90
70368;DHT22;57789;53.868;10.728;2023-10-31T11:37:18;9.50;99.90
70368;DHT22;57789;53.868;10.728;2023-10-31T11:42:38;9.20;99.90
70368;DHT22;57789;53.868;10.728;2023-10-31T11:45:07;9.20;99.90
70368;DHT22;57789;53.868;10.728;2023-10-31T11:47:49;9.10;99.90
70368;DHT22;57789;53.868;10.728;2023-10-31T11:50:15;9.10;99.90
70368;DHT22;57789;53.868;10.728;2023-10-31T11:52:42;9.10;99.90
70368;DHT22;57789;53.868;10.728;2023-10-31T11:55:10;9.00;99.90
70368;DHT22;57789;53.868;10.728;2023-10-31T11:57:38;8.90;99.90
70368;DHT22;57789;53.868;10.728;2023-10-31T12:00:04;8.90;99.90
70368;DHT22;57789;53.868;10.728;2023-10-31T12:02:30;8.80;99.90
70368;DHT22;57789;53.868;10.728;2023-10-31T12:05:13;8.80;99.90
70368;DHT22;57789;53.868;10.728;2023-10-31T12:07:44;8.70;99.90
70368;DHT22;57789;53.868;10.728;2023-10-31T12:10:10;8.80;99.90
70368;DHT22;57789;53.868;10.728;2023-10-31T12:12:36;8.80;99.90
70368;DHT22;57789;53.868;10.728;2023-10-31T12:15:08;8.80;99.90
70368;DHT22;57789;53.868;10.728;2023-10-31T12:17:35;8.80;99.90
70368;DHT22;57789;53.868;10.728;2023-10-31T12:20:06;8.80;99.90
70368;DHT22;57789;53.868;10.728;2023-10-31T12:22:36;8.90;99.90
70368;DHT22;57789;53.868;10.728;2023-10-31T12:25:07;8.90;99.90
70368;DHT22;57789;53.868;10.728;2023-10-31T12:30:12;8.90;99.90
70368;DHT22;57789;53.868;10.728;2023-10-31T12:32:39;8.80;99.90
70368;DHT22;57789;53.868;10.728;2023-10-31T12:35:05;8.80;99.90
70368;DHT22;57789;53.868;10.728;2023-10-31T12:37:32;8.80;99.90
70368;DHT22;57789;53.868;10.728;2023-10-31T12:39:58;8.80;99.90
70368;DHT22;57789;53.868;10.728;2023-10-31T12:42:30;8.80;99.90
70368;DHT22;57789;53.868;10.728;2023-10-31T12:44:58;8.80;99.90
70368;DHT22;57789;53.868;10.728;2023-10-31T12:47:24;8.80;99.90
70368;DHT22;57789;53.868;10.728;2023-10-31T12:52:50;8.80;99.90
70368;DHT22;57789;53.868;10.728;2023-10-31T12:55:18;8.80;99.90
70368;DHT22;57789;53.868;10.728;2023-10-31T12:57:44;8.60;99.90
70368;DHT22;57789;53.868;10.728;2023-10-31T13:00:12;8.60;99.90
70368;DHT22;57789;53.868;10.728;2023-10-31T13:02:39;8.60;99.90
70368;DHT22;57789;53.868;10.728;2023-10-31T13:05:25;8.70;99.90
70368;DHT22;57789;53.868;10.728;2023-10-31T13:07:52;8.80;99.90
70368;DHT22;57789;53.868;10.728;2023-10-31T13:10:19;8.70;99.90
70368;DHT22;57789;53.868;10.728;2023-10-31T13:12:46;8.80;99.90
70368;DHT22;57789;53.868;10.728;2023-10-31T13:15:13;8.80;99.90
70368;DHT22;57789;53.868;10.728;2023-10-31T13:17:40;8.80;99.90
70368;DHT22;57789;53.868;10.728;2023-10-31T13:20:09;8.90;99.90
70368;DHT22;57789;53.868;10.728;2023-10-31T13:22:36;8.90;99.90
70368;DHT22;57789;53.868;10.728;2023-10-31T13:25:03;9.00;99.90
70368;DHT22;57789;53.868;10.728;2023-10-31T13:27:33;9.00;99.90
70368;DHT22;57789;53.868;10.728;2023-10-31T13:30:01;9.00;99.90
70368;DHT22;57789;53.868;10.728;2023-10-31T13:32:27;9.00;99.90
70368;DHT22;57789;53.868;10.728;2023-10-31T13:34:52;8.90;99.90
70368;DHT22;57789;53.868;10.728;2023-10-31T13:37:18;8.90;99.90
70368;DHT22;57789;53.868;10.728;2023-10-31T13:39:44;8.90;99.90
70368;DHT22;57789;53.868;10.728;2023-10-31T13:42:10;8.90;99.90
70368;DHT22;57789;53.868;10.728;2023-10-31T13:44:36;8.90;99.90
70368;DHT22;57789;53.868;10.728;2023-10-31T13:47:02;9.00;99.90
70368;DHT22;57789;53.868;10.728;2023-10-31T13:49:28;9.00;99.90
70368;DHT22;57789;53.868;10.728;2023-10-31T13:51:54;9.00;99.90
70368;DHT22;57789;53.868;10.728;2023-10-31T13:54:20;9.00;99.90
70368;DHT22;57789;53.868;10.728;2023-10-31T13:56:47;8.90;99.90
70368;DHT22;57789;53.868;10.728;2023-10-31T13:59:12;8.80;99.90
70368;DHT22;57789;53.868;10.728;2023-10-31T14:01:38;8.70;99.90
70368;DHT22;57789;53.868;10.728;2023-10-31T14:04:07;8.70;99.90
70368;DHT22;57789;53.868;10.728;2023-10-31T14:06:33;8.60;99.90
70368;DHT22;57789;53.868;10.728;2023-10-31T14:08:59;8.70;99.90
70368;DHT22;57789;53.868;10.728;2023-10-31T14:11:26;8.60;99.90
70368;DHT22;57789;53.868;10.728;2023-10-31T14:13:51;8.60;99.90
70368;DHT22;57789;53.868;10.728;2023-10-31T14:16:18;8.60;99.90
70368;DHT22;57789;53.868;10.728;2023-10-31T14:18:44;8.60;99.90
70368;DHT22;57789;53.868;10.728;2023-10-31T14:21:11;8.60;99.90
70368;DHT22;57789;53.868;10.728;2023-10-31T14:23:37;8.50;99.90
70368;DHT22;57789;53.868;10.728;2023-10-31T14:26:05;8.50;99.90
70368;DHT22;57789;53.868;10.728;2023-10-31T14:28:31;8.50;99.90
70368;DHT22;57789;53.868;10.728;2023-10-31T14:30:58;8.60;99.90
70368;DHT22;57789;53.868;10.728;2023-10-31T14:33:24;8.50;99.90
70368;DHT22;57789;53.868;10.728;2023-10-31T14:35:50;8.50;99.90
70368;DHT22;57789;53.868;10.728;2023-10-31T14:38:15;8.50;99.90
70368;DHT22;57789;53.868;10.728;2023-10-31T14:40:41;8.50;99.90
70368;DHT22;57789;53.868;10.728;2023-10-31T14:43:07;8.50;99.90
70368;DHT22;57789;53.868;10.728;2023-10-31T14:45:32;8.40;99.90
70368;DHT22;57789;53.868;10.728;2023-10-31T14:47:58;8.30;99.90
70368;DHT22;57789;53.868;10.728;2023-10-31T14:50:24;8.30;99.90
70368;DHT22;57789;53.868;10.728;2023-10-31T14:52:50;8.20;99.90
70368;DHT22;57789;53.868;10.728;2023-10-31T14:55:16;8.10;99.90
70368;DHT22;57789;53.868;10.728;2023-10-31T14:57:42;8.10;99.90
70368;DHT22;57789;53.868;10.728;2023-10-31T15:00:08;8.10;99.90
70368;DHT22;57789;53.868;10.728;2023-10-31T15:02:38;8.00;99.90
70368;DHT22;57789;53.868;10.728;2023-10-31T15:05:03;7.90;99.90
70368;DHT22;57789;53.868;10.728;2023-10-31T15:07:29;7.90;99.90
70368;DHT22;57789;53.868;10.728;2023-10-31T15:09:55;7.80;99.90
70368;DHT22;57789;53.868;10.728;2023-10-31T15:12:21;7.80;99.90
70368;DHT22;57789;53.868;10.728;2023-10-31T15:14:50;7.70;99.90
70368;DHT22;57789;53.868;10.728;2023-10-31T15:17:18;7.60;99.90
70368;DHT22;57789;53.868;10.728;2023-10-31T15:19:47;7.60;99.90
70368;DHT22;57789;53.868;10.728;2023-10-31T15:22:14;7.50;99.90
70368;DHT22;57789;53.868;10.728;2023-10-31T15:24:39;7.50;99.90
70368;DHT22;57789;53.868;10.728;2023-10-31T15:27:05;7.40;99.90